Time;durP1;ratioP1;P1;durP2;ratioP2;P2;SDS_P1;SDS_P2;PMS_P1;PMS_P2;Temp;Humidity;BMP_temperature;BMP_pressure;BME280_temperature;BME280_humidity;BME280_pressure;Samples;Min_cycle;Max_cycle;Signal;HPM_P1;HPM_P2
2023/09/21 00:01:24;;;;;;;5.40;3.22;;;;;;;;;;4400997;32;66660;-63
2023/09/21 00:04:11;;;;;;;5.03;3.08;;;;;;;;;;4390123;32;67426;-63
2023/09/21 00:08:14;;;;;;;4.75;3.30;;;;;;;;;;3868888;36;43049;-63
2023/09/21 00:11:04;;;;;;;8.43;3.50;;;;;;;;;;4427063;32;59824;-63
2023/09/21 00:13:50;;;;;;;4.68;3.22;;;;;;;;;;4411617;32;71677;-63
2023/09/21 00:16:40;;;;;;;5.12;3.15;;;;;;;;;;4390120;32;70052;-63
2023/09/21 00:19:27;;;;;;;6.22;3.00;;;;;;;;;;4401049;32;68639;-63
2023/09/21 00:22:12;;;;;;;5.28;3.78;;;;;;;;;;3847547;37;43493;-63
2023/09/21 00:27:45;;;;;;;6.40;3.42;;;;;;;;;;3848458;37;43779;-63
2023/09/21 00:30:35;;;;;;;5.22;3.15;;;;;;;;;;4410210;32;60147;-63
2023/09/21 00:33:22;;;;;;;5.78;3.22;;;;;;;;;;4409221;32;71229;-63
2023/09/21 00:36:12;;;;;;;5.10;3.20;;;;;;;;;;4388232;32;69347;-64
2023/09/21 00:38:59;;;;;;;4.53;2.97;;;;;;;;;;4399475;32;67643;-63
2023/09/21 00:41:47;;;;;;;5.25;3.30;;;;;;;;;;4402742;32;70750;-63
2023/09/21 00:44:37;;;;;;;8.27;3.22;;;;;;;;;;4412947;32;65241;-64
2023/09/21 00:50:11;;;;;;;5.05;3.22;;;;;;;;;;3847272;37;43096;-63
2023/09/21 00:52:56;;;;;;;6.07;3.35;;;;;;;;;;3847369;37;43772;-63
2023/09/21 00:55:52;;;;;;;4.70;3.22;;;;;;;;;;4389257;32;60257;-63
2023/09/21 00:58:42;;;;;;;6.20;3.70;;;;;;;;;;4387564;32;68451;-63
2023/09/21 01:01:30;;;;;;;7.60;3.20;;;;;;;;;;4399082;32;68503;-64
2023/09/21 01:04:17;;;;;;;5.62;3.47;;;;;;;;;;4388409;32;67816;-63
2023/09/21 01:07:17;;;;;;;6.53;3.33;;;;;;;;;;4388379;32;71393;-63
2023/09/21 01:10:07;;;;;;;6.70;4.18;;;;;;;;;;4400007;32;65727;-63
2023/09/21 01:12:55;;;;;;;5.43;3.33;;;;;;;;;;4398225;32;67356;-63
2023/09/21 01:16:04;;;;;;;7.43;3.60;;;;;;;;;;4409222;32;61265;-63
2023/09/21 01:18:54;;;;;;;4.35;2.78;;;;;;;;;;4398929;32;71171;-63
2023/09/21 01:21:42;;;;;;;5.05;3.47;;;;;;;;;;4408828;32;65731;-64
2023/09/21 01:24:29;;;;;;;6.15;3.15;;;;;;;;;;4398785;32;66526;-63
2023/09/21 01:27:17;;;;;;;6.22;3.50;;;;;;;;;;4409685;32;59216;-63
2023/09/21 01:30:11;;;;;;;6.22;3.53;;;;;;;;;;4410470;32;69621;-64
2023/09/21 01:33:03;;;;;;;6.07;3.30;;;;;;;;;;4409148;32;68347;-64
2023/09/21 01:35:50;;;;;;;6.62;3.40;;;;;;;;;;4409172;32;67252;-64
2023/09/21 01:38:37;;;;;;;;;;;;;;;;;;4398238;32;72843;-64
2023/09/21 01:41:24;;;;;;;8.23;3.70;;;;;;;;;;4398736;32;66217;-62
2023/09/21 01:44:10;;;;;;;4.45;3.05;;;;;;;;;;4398331;32;68169;-63
2023/09/21 01:46:55;;;;;;;5.57;3.28;;;;;;;;;;3843154;37;42985;-63
2023/09/21 01:49:44;;;;;;;5.45;3.62;;;;;;;;;;4383415;32;59513;-63
2023/09/21 01:52:43;;;;;;;9.85;3.85;;;;;;;;;;3847217;37;43169;-63
2023/09/21 01:55:31;;;;;;;7.20;3.70;;;;;;;;;;4398475;32;60482;-63
2023/09/21 01:58:23;;;;;;;5.25;3.20;;;;;;;;;;4387379;32;71748;-63
2023/09/21 02:01:08;;;;;;;5.82;3.47;;;;;;;;;;3847511;37;43099;-62
2023/09/21 02:03:56;;;;;;;6.07;3.60;;;;;;;;;;4388642;32;59847;-63
2023/09/21 02:06:42;;;;;;;;;;;;;;;;;;4388035;32;71800;-63
2023/09/21 02:09:29;;;;;;;5.40;3.40;;;;;;;;;;4398450;32;68062;-63
2023/09/21 02:12:18;;;;;;;6.57;3.47;;;;;;;;;;4388084;32;68507;-64
2023/09/21 02:15:09;;;;;;;;;;;;;;;;;;4388589;32;71977;-63
2023/09/21 02:17:56;;;;;;;9.63;4.00;;;;;;;;;;4377812;32;67486;-64
2023/09/21 02:20:49;;;;;;;6.03;3.95;;;;;;;;;;4409562;32;66876;-64
2023/09/21 02:23:37;;;;;;;7.82;3.65;;;;;;;;;;4409860;32;59704;-63
2023/09/21 02:26:26;;;;;;;6.43;3.50;;;;;;;;;;4400337;32;71763;-62
2023/09/21 02:29:17;;;;;;;5.32;3.10;;;;;;;;;;4419828;32;68205;-63
2023/09/21 02:32:04;;;;;;;5.00;3.45;;;;;;;;;;4393654;32;66161;-63
2023/09/21 02:34:52;;;;;;;7.30;3.83;;;;;;;;;;4388468;32;59011;-63
2023/09/21 02:40:23;;;;;;;6.65;3.90;;;;;;;;;;3847386;37;43867;-64
2023/09/21 02:43:13;;;;;;;6.72;3.20;;;;;;;;;;4377482;32;58854;-64
2023/09/21 02:45:59;;;;;;;5.93;3.40;;;;;;;;;;4398946;32;70374;-63
2023/09/21 02:48:46;;;;;;;6.53;3.30;;;;;;;;;;4387341;32;68074;-64
2023/09/21 02:51:32;;;;;;;5.45;3.28;;;;;;;;;;4387465;32;66191;-64
2023/09/21 02:54:19;;;;;;;4.43;3.20;;;;;;;;;;4408872;32;70638;-62
2023/09/21 02:57:05;;;;;;;7.68;3.30;;;;;;;;;;4398411;32;65645;-63
2023/09/21 02:59:52;;;;;;;5.07;3.12;;;;;;;;;;4398844;32;67117;-63
2023/09/21 03:02:39;;;;;;;6.80;3.12;;;;;;;;;;4388485;32;59890;-63
2023/09/21 03:05:27;;;;;;;6.22;3.30;;;;;;;;;;4397959;32;69901;-63
2023/09/21 03:08:14;;;;;;;5.95;3.20;;;;;;;;;;4409065;32;64375;-63
2023/09/21 03:11:05;;;;;;;6.07;3.30;;;;;;;;;;4398249;32;66314;-64
2023/09/21 03:13:55;;;;;;;4.47;2.90;;;;;;;;;;4409751;32;59310;-63
2023/09/21 03:16:43;;;;;;;4.87;3.00;;;;;;;;;;4399168;32;69564;-64
2023/09/21 03:19:30;;;;;;;5.80;3.67;;;;;;;;;;4409289;32;69610;-63
2023/09/21 03:22:18;;;;;;;7.18;3.85;;;;;;;;;;4398522;32;67268;-63
2023/09/21 03:25:11;;;;;;;5.28;3.05;;;;;;;;;;4397707;32;71030;-63
2023/09/21 03:28:00;;;;;;;6.35;2.97;;;;;;;;;;4388697;32;66002;-63
2023/09/21 03:30:48;;;;;;;5.72;3.60;;;;;;;;;;4376493;32;67849;-63
2023/09/21 03:33:35;;;;;;;4.90;3.05;;;;;;;;;;4398392;32;66616;-63
2023/09/21 03:36:22;;;;;;;;;;;;;;;;;;4387354;32;72998;-63
2023/09/21 03:39:11;;;;;;;6.47;3.05;;;;;;;;;;4397700;32;64916;-64
2023/09/21 03:41:58;;;;;;;4.72;3.03;;;;;;;;;;4398505;32;66886;-64
2023/09/21 03:44:46;;;;;;;5.72;3.12;;;;;;;;;;4398540;32;60234;-63
2023/09/21 03:47:33;;;;;;;4.97;3.03;;;;;;;;;;4387388;32;69374;-64
2023/09/21 03:50:25;;;;;;;4.93;2.92;;;;;;;;;;4382433;32;68028;-62
2023/09/21 03:53:12;;;;;;;5.10;2.92;;;;;;;;;;4388632;32;67829;-63
2023/09/21 03:56:01;;;;;;;4.50;2.97;;;;;;;;;;4377737;32;60141;-63
2023/09/21 03:58:47;;;;;;;5.28;3.00;;;;;;;;;;4387197;32;71100;-63
2023/09/21 04:01:35;;;;;;;4.35;2.70;;;;;;;;;;4388066;32;69519;-64
2023/09/21 04:04:23;;;;;;;4.70;2.80;;;;;;;;;;4400097;32;67777;-63
2023/09/21 04:07:17;;;;;;;6.87;3.20;;;;;;;;;;4388376;32;70767;-61
2023/09/21 04:10:20;;;;;;;5.55;2.92;;;;;;;;;;4399300;32;65443;-64
2023/09/21 04:13:07;;;;;;;4.62;2.60;;;;;;;;;;4391321;32;65704;-63
2023/09/21 04:15:54;;;;;;;4.65;2.80;;;;;;;;;;4390049;32;60106;-63
2023/09/21 04:18:41;;;;;;;3.92;2.75;;;;;;;;;;4376883;32;70487;-63
2023/09/21 04:21:30;;;;;;;7.03;3.22;;;;;;;;;;4377074;32;65833;-63
2023/09/21 04:24:17;;;;;;;6.45;2.50;;;;;;;;;;4399000;32;67709;-64
2023/09/21 04:27:04;;;;;;;7.25;2.72;;;;;;;;;;4376828;32;59675;-63
2023/09/21 04:29:50;;;;;;;4.50;2.60;;;;;;;;;;4387646;32;70716;-64
2023/09/21 04:32:38;;;;;;;7.30;3.83;;;;;;;;;;4367007;32;70467;-63
2023/09/21 04:35:25;;;;;;;4.82;2.87;;;;;;;;;;4387410;32;66353;-63
2023/09/21 04:38:13;;;;;;;4.72;2.80;;;;;;;;;;4387275;32;72069;-63
2023/09/21 04:41:00;;;;;;;4.93;2.80;;;;;;;;;;4386960;32;67888;-64
2023/09/21 04:43:48;;;;;;;4.90;3.20;;;;;;;;;;4376854;32;68007;-63
2023/09/21 04:46:38;;;;;;;7.10;3.42;;;;;;;;;;4365761;32;68831;-63
2023/09/21 04:49:24;;;;;;;5.22;3.08;;;;;;;;;;4397981;32;70725;-63
2023/09/21 04:52:11;;;;;;;5.43;2.83;;;;;;;;;;4399276;32;65591;-63
2023/09/21 04:54:59;;;;;;;5.50;3.08;;;;;;;;;;4387381;32;66751;-64
2023/09/21 04:57:46;;;;;;;5.53;2.85;;;;;;;;;;4386756;32;59995;-64
2023/09/21 05:00:33;;;;;;;4.75;2.90;;;;;;;;;;4386517;32;69836;-63
2023/09/21 05:03:19;;;;;;;5.47;2.85;;;;;;;;;;4397044;32;69527;-64
2023/09/21 05:06:06;;;;;;;5.32;3.72;;;;;;;;;;4397249;32;65642;-64
2023/09/21 05:08:53;;;;;;;;;;;;;;;;;;4387568;32;59145;-63
2023/09/21 05:11:43;;;;;;;4.70;2.70;;;;;;;;;;4365582;32;68294;-63
2023/09/21 05:14:30;;;;;;;4.87;2.90;;;;;;;;;;4387094;32;68373;-63
2023/09/21 05:17:21;;;;;;;7.40;2.70;;;;;;;;;;4386931;32;67669;-63
2023/09/21 05:20:10;;;;;;;4.43;2.85;;;;;;;;;;4376271;32;72095;-64
2023/09/21 05:23:00;;;;;;;4.68;3.25;;;;;;;;;;4386786;32;64877;-63
2023/09/21 05:25:49;;;;;;;4.65;2.75;;;;;;;;;;4398919;32;66694;-64
2023/09/21 05:28:36;;;;;;;5.15;3.00;;;;;;;;;;4375899;32;61269;-62
2023/09/21 05:31:23;;;;;;;4.35;2.90;;;;;;;;;;4397394;32;69548;-64
2023/09/21 05:34:09;;;;;;;;;;;;;;;;;;4387622;32;64864;-64
2023/09/21 05:36:55;;;;;;;5.70;2.90;;;;;;;;;;4374829;32;67370;-63
2023/09/21 05:39:42;;;;;;;5.37;2.78;;;;;;;;;;4386039;32;61563;-64
2023/09/21 05:42:29;;;;;;;5.20;2.92;;;;;;;;;;4364991;32;69467;-63
2023/09/21 05:45:15;;;;;;;;;;;;;;;;;;4375595;32;70117;-63
2023/09/21 05:48:01;;;;;;;4.70;2.90;;;;;;;;;;4376032;32;67782;-63
2023/09/21 05:50:49;;;;;;;4.90;2.65;;;;;;;;;;4376146;32;71698;-63
2023/09/21 05:53:36;;;;;;;5.78;2.90;;;;;;;;;;4386205;32;65987;-63
2023/09/21 05:56:22;;;;;;;4.10;2.60;;;;;;;;;;4387040;32;67804;-63
2023/09/21 05:59:09;;;;;;;4.80;2.85;;;;;;;;;;4405632;32;67264;-62
2023/09/21 06:01:59;;;;;;;6.07;2.80;;;;;;;;;;4391648;32;70561;-64
2023/09/21 06:04:46;;;;;;;7.65;2.90;;;;;;;;;;4397805;32;65838;-63
2023/09/21 06:07:35;;;;;;;4.37;2.85;;;;;;;;;;4375068;32;66014;-63
2023/09/21 06:10:32;;;;;;;4.78;2.90;;;;;;;;;;4386687;32;59335;-63
2023/09/21 06:13:18;;;;;;;5.43;3.12;;;;;;;;;;4396409;32;70542;-62
2023/09/21 06:16:05;;;;;;;6.95;3.17;;;;;;;;;;4386175;32;69546;-63
2023/09/21 06:18:52;;;;;;;5.28;3.05;;;;;;;;;;4386198;32;67662;-63
2023/09/21 06:21:39;;;;;;;4.22;2.75;;;;;;;;;;4397021;32;71819;-62
2023/09/21 06:24:29;;;;;;;4.32;2.90;;;;;;;;;;4375276;32;69320;-64
2023/09/21 06:27:18;;;;;;;7.70;3.12;;;;;;;;;;4374692;32;69131;-64
2023/09/21 06:30:05;;;;;;;5.07;2.97;;;;;;;;;;4386139;32;67523;-64
2023/09/21 06:32:56;;;;;;;4.18;2.92;;;;;;;;;;4386243;32;71471;-63
2023/09/21 06:35:42;;;;;;;5.15;3.03;;;;;;;;;;4396861;32;65299;-64
2023/09/21 06:38:29;;;;;;;5.25;2.72;;;;;;;;;;4375096;32;68419;-63
2023/09/21 06:41:16;;;;;;;;;;;;;;;;;;4386655;32;59954;-62
2023/09/21 06:44:02;;;;;;;4.90;2.87;;;;;;;;;;4386209;32;69493;-64
2023/09/21 06:46:50;;;;;;;6.75;3.00;;;;;;;;;;4385741;32;68376;-64
2023/09/21 06:49:37;;;;;;;4.47;2.78;;;;;;;;;;4375235;32;69078;-63
2023/09/21 06:52:25;;;;;;;;;;;;;;;;;;4386812;32;59387;-63
2023/09/21 06:55:14;;;;;;;4.53;2.90;;;;;;;;;;4374774;32;68641;-63
2023/09/21 06:58:03;;;;;;;5.90;3.10;;;;;;;;;;4385976;32;69657;-64
2023/09/21 07:00:50;;;;;;;5.32;2.80;;;;;;;;;;4375428;32;67639;-63
2023/09/21 07:03:37;;;;;;;;;;;;;;;;;;4385560;32;71936;-63
2023/09/21 07:06:24;;;;;;;6.45;3.17;;;;;;;;;;4385556;32;67090;-64
2023/09/21 07:09:11;;;;;;;5.00;3.37;;;;;;;;;;4385890;32;67218;-63
2023/09/21 07:11:57;;;;;;;;;;;;;;;;;;4375989;32;59687;-63
2023/09/21 07:14:44;;;;;;;4.87;3.28;;;;;;;;;;4364218;32;74463;-63
2023/09/21 07:17:32;;;;;;;7.68;3.45;;;;;;;;;;4374595;32;66435;-64
2023/09/21 07:20:23;;;;;;;5.78;3.47;;;;;;;;;;4374101;32;68186;-62
2023/09/21 07:23:10;;;;;;;5.12;2.92;;;;;;;;;;4397766;32;59074;-63
2023/09/21 07:25:57;;;;;;;4.07;2.97;;;;;;;;;;4386698;32;70668;-63
2023/09/21 07:28:45;;;;;;;5.43;3.00;;;;;;;;;;4399307;32;69832;-64
2023/09/21 07:31:33;;;;;;;5.80;3.50;;;;;;;;;;4366697;32;69401;-62
2023/09/21 07:34:20;;;;;;;4.45;2.67;;;;;;;;;;4378045;32;72335;-63
2023/09/21 07:37:10;;;;;;;;;;;;;;;;;;4391272;32;70823;-63
2023/09/21 07:39:57;;;;;;;5.30;3.20;;;;;;;;;;4400302;32;69426;-63
2023/09/21 07:42:45;;;;;;;7.30;3.15;;;;;;;;;;4399146;32;67859;-64
2023/09/21 07:45:32;;;;;;;5.35;3.00;;;;;;;;;;4379714;32;72208;-64
2023/09/21 07:48:20;;;;;;;;;;;;;;;;;;4388404;32;64487;-63
2023/09/21 07:51:07;;;;;;;7.07;3.33;;;;;;;;;;4387776;32;69025;-65
2023/09/21 07:53:54;;;;;;;5.37;3.40;;;;;;;;;;4388126;32;59635;-63
2023/09/21 07:56:42;;;;;;;;;;;;;;;;;;4400829;32;70457;-64
2023/09/21 07:59:28;;;;;;;4.72;2.92;;;;;;;;;;4400272;32;69487;-63
2023/09/21 08:02:16;;;;;;;;;;;;;;;;;;4387735;32;68596;-64
2023/09/21 08:05:04;;;;;;;5.70;3.05;;;;;;;;;;4377910;32;59393;-63
2023/09/21 08:07:50;;;;;;;4.45;2.97;;;;;;;;;;4399068;32;70626;-67
2023/09/21 08:10:37;;;;;;;4.53;3.03;;;;;;;;;;4379331;32;68651;-63
2023/09/21 08:13:24;;;;;;;;;;;;;;;;;;4403008;32;66943;-63
2023/09/21 08:16:11;;;;;;;6.70;3.92;;;;;;;;;;4399417;32;70979;-64
2023/09/21 08:18:58;;;;;;;7.07;3.85;;;;;;;;;;4387933;32;66922;-63
2023/09/21 08:21:45;;;;;;;4.40;3.28;;;;;;;;;;4398644;32;67843;-62
2023/09/21 08:24:31;;;;;;;5.28;2.90;;;;;;;;;;4366435;32;60636;-62
2023/09/21 08:27:18;;;;;;;5.68;3.20;;;;;;;;;;4376125;32;72719;-63
2023/09/21 08:30:09;;;;;;;;;;;;;;;;;;4377145;32;66649;-63
2023/09/21 08:32:55;;;;;;;5.43;3.47;;;;;;;;;;4377090;32;68019;-62
2023/09/21 08:35:43;;;;;;;6.12;3.80;;;;;;;;;;4390654;32;60153;-63
2023/09/21 08:38:30;;;;;;;4.70;3.20;;;;;;;;;;4387492;32;70843;-63
2023/09/21 08:41:17;;;;;;;6.90;3.62;;;;;;;;;;4376976;32;70297;-63
2023/09/21 08:44:04;;;;;;;4.22;3.10;;;;;;;;;;4391000;32;68701;-63
2023/09/21 08:46:51;;;;;;;5.32;3.62;;;;;;;;;;4385453;32;71217;-62
2023/09/21 08:49:39;;;;;;;6.57;3.22;;;;;;;;;;4384507;32;66986;-62
2023/09/21 08:52:27;;;;;;;5.05;3.17;;;;;;;;;;4379684;32;67746;-63
2023/09/21 08:55:14;;;;;;;5.80;3.60;;;;;;;;;;4405087;32;66622;-63
2023/09/21 08:58:00;;;;;;;5.15;3.67;;;;;;;;;;4383163;32;71729;-63
2023/09/21 09:00:47;;;;;;;;;;;;;;;;;;4395675;32;66338;-62
2023/09/21 09:03:34;;;;;;;5.40;3.50;;;;;;;;;;4406115;32;67366;-63
2023/09/21 09:06:21;;;;;;;7.12;3.90;;;;;;;;;;4390322;32;60704;-62
2023/09/21 09:09:08;;;;;;;;;;;;;;;;;;4394739;32;70839;-67
2023/09/21 09:11:54;;;;;;;6.80;3.70;;;;;;;;;;4405889;32;70364;-62
2023/09/21 09:14:42;;;;;;;7.40;3.90;;;;;;;;;;4382894;32;67029;-64
2023/09/21 09:17:33;;;;;;;6.72;3.70;;;;;;;;;;4404991;32;60202;-63
2023/09/21 09:20:19;;;;;;;6.00;3.75;;;;;;;;;;4393306;32;71082;-65
2023/09/21 09:23:12;;;;;;;6.65;3.60;;;;;;;;;;4397764;32;68221;-63
2023/09/21 09:26:09;;;;;;;6.43;3.60;;;;;;;;;;4385954;32;68932;-63
2023/09/21 09:29:06;;;;;;;;;;;;;;;;;;4375689;32;72248;-62
2023/09/21 09:31:52;;;;;;;4.70;3.20;;;;;;;;;;4376624;32;65807;-63
2023/09/21 09:34:39;;;;;;;5.32;3.53;;;;;;;;;;4396953;32;68499;-63
2023/09/21 09:37:38;;;;;;;6.32;4.12;;;;;;;;;;3845617;37;43721;-63
2023/09/21 09:40:25;;;;;;;6.62;3.72;;;;;;;;;;4377515;32;61753;-62
2023/09/21 09:43:14;;;;;;;5.47;3.70;;;;;;;;;;4398779;32;70461;-62
2023/09/21 09:46:28;;;;;;;6.57;3.87;;;;;;;;;;3847352;37;43852;-62
2023/09/21 09:49:17;;;;;;;5.32;3.55;;;;;;;;;;4383280;32;59046;-62
2023/09/21 09:52:09;;;;;;;6.22;3.92;;;;;;;;;;4372438;32;69738;-62
2023/09/21 09:54:59;;;;;;;5.50;3.70;;;;;;;;;;4394293;32;69390;-62
2023/09/21 09:57:56;;;;;;;5.78;3.70;;;;;;;;;;4375057;32;66804;-63
2023/09/21 10:00:52;;;;;;;6.43;3.75;;;;;;;;;;4374247;32;72505;-63
2023/09/21 10:03:50;;;;;;;6.03;3.78;;;;;;;;;;4393400;32;65460;-64
2023/09/21 10:06:41;;;;;;;6.00;3.47;;;;;;;;;;4382531;32;68689;-63
2023/09/21 10:09:34;;;;;;;6.35;3.90;;;;;;;;;;4394410;32;60286;-62
2023/09/21 10:12:23;;;;;;;5.53;3.67;;;;;;;;;;4372496;32;70970;-63
2023/09/21 10:15:13;;;;;;;7.18;3.60;;;;;;;;;;4383542;32;66028;-63
2023/09/21 10:18:14;;;;;;;7.65;3.95;;;;;;;;;;4363711;32;66837;-63
2023/09/21 10:21:43;;;;;;;5.78;3.62;;;;;;;;;;4384640;32;60062;-62
2023/09/21 10:24:31;;;;;;;5.70;3.33;;;;;;;;;;4334461;32;70278;-63
2023/09/21 10:27:24;;;;;;;8.65;3.70;;;;;;;;;;4326497;32;69981;-63
2023/09/21 10:30:15;;;;;;;7.03;3.80;;;;;;;;;;4378366;32;66345;-64
2023/09/21 10:33:04;;;;;;;5.25;3.50;;;;;;;;;;4394219;32;71588;-63
2023/09/21 10:35:55;;;;;;;8.10;3.80;;;;;;;;;;4396128;32;66229;-64
2023/09/21 10:38:43;;;;;;;6.18;3.97;;;;;;;;;;4385431;32;69610;-62
2023/09/21 10:41:31;;;;;;;6.03;3.67;;;;;;;;;;4385007;32;67843;-63
2023/09/21 10:45:04;;;;;;;5.05;3.35;;;;;;;;;;4384146;32;70524;-63
2023/09/21 10:47:52;;;;;;;6.05;3.67;;;;;;;;;;4394482;32;65174;-63
2023/09/21 10:50:39;;;;;;;;;;;;;;;;;;4383826;32;66728;-62
2023/09/21 10:53:25;;;;;;;6.65;3.80;;;;;;;;;;4396492;32;58835;-63
2023/09/21 10:56:14;;;;;;;6.85;4.10;;;;;;;;;;4391824;32;70735;-63
2023/09/21 10:59:01;;;;;;;6.30;4.28;;;;;;;;;;4373816;32;68860;-63
2023/09/21 11:01:49;;;;;;;6.45;3.87;;;;;;;;;;4384754;32;66600;-63
2023/09/21 11:04:36;;;;;;;5.15;3.50;;;;;;;;;;4352748;32;58837;-61
2023/09/21 11:07:22;;;;;;;5.68;4.05;;;;;;;;;;4384935;32;69668;-62
2023/09/21 11:10:11;;;;;;;6.32;3.72;;;;;;;;;;4375750;32;68369;-63
2023/09/21 11:12:58;;;;;;;6.20;4.10;;;;;;;;;;4365183;32;65581;-63
2023/09/21 11:15:47;;;;;;;;;;;;;;;;;;4363496;32;70758;-63
2023/09/21 11:18:34;;;;;;;8.43;4.40;;;;;;;;;;4372690;32;65572;-63
2023/09/21 11:21:22;;;;;;;5.50;4.10;;;;;;;;;;4361490;32;65488;-64
2023/09/21 11:24:09;;;;;;;6.07;4.37;;;;;;;;;;4383322;32;58912;-63
2023/09/21 11:26:55;;;;;;;7.05;4.40;;;;;;;;;;4372133;32;69667;-63
2023/09/21 11:29:43;;;;;;;6.50;4.40;;;;;;;;;;4371880;32;66620;-63
2023/09/21 11:32:29;;;;;;;7.65;4.43;;;;;;;;;;4361542;32;66430;-63
2023/09/21 11:35:16;;;;;;;;;;;;;;;;;;4372372;32;57952;-63
2023/09/21 11:38:04;;;;;;;6.22;3.90;;;;;;;;;;4382910;32;70370;-64
2023/09/21 11:40:51;;;;;;;7.28;4.20;;;;;;;;;;4360742;32;69338;-63
2023/09/21 11:43:38;;;;;;;6.37;4.15;;;;;;;;;;4361770;32;67578;-64
2023/09/21 11:46:25;;;;;;;8.52;4.53;;;;;;;;;;4331645;32;73649;-63
2023/09/21 11:49:16;;;;;;;8.13;4.37;;;;;;;;;;4341978;32;65025;-64
2023/09/21 11:52:15;;;;;;;6.47;4.20;;;;;;;;;;4342693;32;66875;-63
2023/09/21 11:55:03;;;;;;;6.82;4.57;;;;;;;;;;4331821;32;67148;-64
2023/09/21 11:58:13;;;;;;;6.50;4.20;;;;;;;;;;4344112;32;71267;-63
2023/09/21 12:03:53;;;;;;;6.75;4.53;;;;;;;;;;4331587;32;67595;-63
2023/09/21 12:06:40;;;;;;;6.87;4.18;;;;;;;;;;4341416;32;59937;-64
2023/09/21 12:09:27;;;;;;;7.70;4.50;;;;;;;;;;4341060;32;69623;-64
2023/09/21 12:12:13;;;;;;;;;;;;;;;;;;4352624;32;68404;-62
2023/09/21 12:15:11;;;;;;;6.43;4.10;;;;;;;;;;4341781;32;67963;-63
2023/09/21 12:18:12;;;;;;;6.45;4.18;;;;;;;;;;4333721;32;58854;-63
2023/09/21 12:21:00;;;;;;;6.85;4.35;;;;;;;;;;4342496;32;70402;-63
2023/09/21 12:23:49;;;;;;;6.95;4.72;;;;;;;;;;4342567;32;69361;-63
2023/09/21 12:26:36;;;;;;;6.78;4.50;;;;;;;;;;4341770;32;67411;-63
2023/09/21 12:29:24;;;;;;;6.75;4.50;;;;;;;;;;4341642;32;71504;-63
2023/09/21 12:32:11;;;;;;;8.38;4.32;;;;;;;;;;4352156;32;65099;-64
2023/09/21 12:35:02;;;;;;;7.37;4.60;;;;;;;;;;4330786;32;68345;-62
2023/09/21 12:37:50;;;;;;;4.80;4.00;;;;;;;;;;4352292;32;60319;-63
2023/09/21 12:40:39;;;;;;;6.15;4.10;;;;;;;;;;4341403;32;70860;-62
2023/09/21 12:43:28;;;;;;;7.35;4.78;;;;;;;;;;4341753;32;65578;-64
2023/09/21 12:46:15;;;;;;;6.78;4.78;;;;;;;;;;4369024;32;68422;-63
2023/09/21 12:49:01;;;;;;;6.45;4.65;;;;;;;;;;4360295;32;58099;-64
2023/09/21 12:51:48;;;;;;;8.30;4.70;;;;;;;;;;4382197;32;70559;-63
2023/09/21 12:54:35;;;;;;;8.57;4.65;;;;;;;;;;4382285;32;68743;-63
2023/09/21 12:57:22;;;;;;;;;;;;;;;;;;4389267;32;66648;-63
2023/09/21 13:00:23;;;;;;;7.70;4.00;;;;;;;;;;4372386;32;70874;-63
2023/09/21 13:03:12;;;;;;;7.53;4.37;;;;;;;;;;4383061;32;65962;-62
2023/09/21 13:05:59;;;;;;;10.55;4.57;;;;;;;;;;4371659;32;68593;-63
2023/09/21 13:08:46;;;;;;;6.80;4.30;;;;;;;;;;4370859;32;68368;-62
2023/09/21 13:11:32;;;;;;;;;;;;;;;;;;4382640;32;71798;-63
2023/09/21 13:14:19;;;;;;;8.70;4.55;;;;;;;;;;4371419;32;66888;-62
2023/09/21 13:17:06;;;;;;;8.48;4.55;;;;;;;;;;4371035;32;66000;-62
2023/09/21 13:19:53;;;;;;;;;;;;;;;;;;4372088;32;59170;-63
2023/09/21 13:22:40;;;;;;;6.57;4.30;;;;;;;;;;4371520;32;70062;-63
2023/09/21 13:25:27;;;;;;;7.85;4.70;;;;;;;;;;4371804;32;69381;-63
2023/09/21 13:28:14;;;;;;;8.63;4.47;;;;;;;;;;4371713;32;67895;-63
2023/09/21 13:31:02;;;;;;;7.12;4.47;;;;;;;;;;4366312;32;74225;-63
2023/09/21 13:33:49;;;;;;;6.60;4.53;;;;;;;;;;4383861;32;69937;-63
2023/09/21 13:36:36;;;;;;;6.15;4.25;;;;;;;;;;4372089;32;69124;-63
2023/09/21 13:39:22;;;;;;;8.70;4.65;;;;;;;;;;3847924;37;43652;-64
2023/09/21 13:42:10;;;;;;;8.02;4.68;;;;;;;;;;4412023;32;58976;-62
2023/09/21 13:44:57;;;;;;;6.55;4.62;;;;;;;;;;4399387;32;70726;-63
2023/09/21 13:47:45;;;;;;;7.43;4.80;;;;;;;;;;4399079;32;69262;-63
2023/09/21 13:50:31;;;;;;;;;;;;;;;;;;4410324;32;67200;-62
2023/09/21 13:53:18;;;;;;;7.65;5.53;;;;;;;;;;4399190;32;71588;-63
2023/09/21 13:56:08;;;;;;;6.57;4.20;;;;;;;;;;4398711;32;66910;-62
2023/09/21 13:58:56;;;;;;;8.38;4.95;;;;;;;;;;4399345;32;67147;-63
2023/09/21 14:01:45;;;;;;;7.25;4.60;;;;;;;;;;4399159;32;61138;-63
2023/09/21 14:04:31;;;;;;;6.97;4.93;;;;;;;;;;4387722;32;73290;-63
2023/09/21 14:07:19;;;;;;;7.32;4.65;;;;;;;;;;4410013;32;64857;-62
2023/09/21 14:10:07;;;;;;;6.93;4.55;;;;;;;;;;4411251;32;66957;-62
2023/09/21 14:12:53;;;;;;;9.98;4.72;;;;;;;;;;4399597;32;59534;-63
2023/09/21 14:15:41;;;;;;;7.22;4.30;;;;;;;;;;4388596;32;71478;-62
2023/09/21 14:18:28;;;;;;;8.40;4.82;;;;;;;;;;4388544;32;69503;-63
2023/09/21 14:21:15;;;;;;;6.90;4.72;;;;;;;;;;4399463;32;66486;-63
2023/09/21 14:24:02;;;;;;;8.00;5.05;;;;;;;;;;4398418;32;72535;-63
2023/09/21 14:26:51;;;;;;;8.05;4.68;;;;;;;;;;4399550;32;65485;-62
2023/09/21 14:29:41;;;;;;;9.82;5.10;;;;;;;;;;4398246;32;70452;-63
2023/09/21 14:32:28;;;;;;;;;;;;;;;;;;4388121;32;68227;-62
2023/09/21 14:35:15;;;;;;;7.63;4.70;;;;;;;;;;4410474;32;71990;-64
2023/09/21 14:38:02;;;;;;;6.32;4.40;;;;;;;;;;4409509;32;66175;-62
2023/09/21 14:40:49;;;;;;;8.55;4.97;;;;;;;;;;4399949;32;69520;-63
2023/09/21 14:43:38;;;;;;;8.23;4.90;;;;;;;;;;4404626;32;61055;-63
2023/09/21 14:46:30;;;;;;;8.25;4.85;;;;;;;;;;4398798;32;69474;-63
2023/09/21 14:49:42;;;;;;;;;;;;;;;;;;4388028;32;68393;-62
2023/09/21 14:52:29;;;;;;;7.75;4.68;;;;;;;;;;4377539;32;68617;-63
2023/09/21 14:55:15;;;;;;;7.97;4.97;;;;;;;;;;4377188;32;59313;-63
2023/09/21 14:58:02;;;;;;;;;;;;;;;;;;4377975;32;70823;-61
2023/09/21 15:00:54;;;;;;;7.37;4.62;;;;;;;;;;4387933;32;69961;-63
2023/09/21 15:03:44;;;;;;;7.87;4.85;;;;;;;;;;4365911;32;67322;-63
2023/09/21 15:06:31;;;;;;;8.10;5.22;;;;;;;;;;4366640;32;72128;-64
2023/09/21 15:09:17;;;;;;;5.78;4.28;;;;;;;;;;4388500;32;66429;-63
2023/09/21 15:12:07;;;;;;;6.97;4.80;;;;;;;;;;4367275;32;66043;-63
2023/09/21 15:14:54;;;;;;;;;;;;;;;;;;4378267;32;58215;-63
2023/09/21 15:17:41;;;;;;;6.77;4.00;;;;;;;;;;4389006;32;69943;-63
2023/09/21 15:23:12;;;;;;;10.32;4.62;;;;;;;;;;3847644;37;43571;-64
2023/09/21 15:26:02;;;;;;;7.72;4.30;;;;;;;;;;4398761;32;61445;-62
2023/09/21 15:28:52;;;;;;;9.07;4.85;;;;;;;;;;4375538;32;68980;-63
2023/09/21 15:31:38;;;;;;;7.97;4.62;;;;;;;;;;4398882;32;68338;-62
2023/09/21 15:34:25;;;;;;;7.12;4.32;;;;;;;;;;4377318;32;65508;-63
2023/09/21 15:37:14;;;;;;;;;;;;;;;;;;4399553;32;71008;-63
2023/09/21 15:40:00;;;;;;;9.25;4.72;;;;;;;;;;4410027;32;66145;-64
2023/09/21 15:42:48;;;;;;;6.90;4.32;;;;;;;;;;4377535;32;68464;-63
2023/09/21 15:45:34;;;;;;;9.23;4.87;;;;;;;;;;4398683;32;61338;-63
2023/09/21 15:48:22;;;;;;;;;;;;;;;;;;4372707;32;73066;-61
2023/09/21 15:51:09;;;;;;;7.47;5.00;;;;;;;;;;4373507;32;65034;-63
2023/09/21 15:53:56;;;;;;;9.98;5.18;;;;;;;;;;4362184;32;66492;-62
2023/09/21 15:56:47;;;;;;;8.02;4.80;;;;;;;;;;4372734;32;60640;-63
2023/09/21 16:00:18;;;;;;;6.70;4.57;;;;;;;;;;3847830;37;43445;-62
2023/09/21 16:03:05;;;;;;;9.13;4.75;;;;;;;;;;4410464;32;60289;-62
2023/09/21 16:05:52;;;;;;;;;;;;;;;;;;4388673;32;72082;-63
2023/09/21 16:08:39;;;;;;;7.37;5.12;;;;;;;;;;4399182;32;70080;-63
2023/09/21 16:11:26;;;;;;;7.78;4.40;;;;;;;;;;4410369;32;67485;-63
2023/09/21 16:14:12;;;;;;;7.87;4.75;;;;;;;;;;4399281;32;70622;-63
2023/09/21 16:17:03;;;;;;;7.65;5.20;;;;;;;;;;4399670;32;64984;-62
2023/09/21 16:19:50;;;;;;;9.02;4.87;;;;;;;;;;4410482;32;67955;-63
2023/09/21 16:22:37;;;;;;;8.25;5.20;;;;;;;;;;4391102;32;61015;-63
2023/09/21 16:25:24;;;;;;;6.72;4.47;;;;;;;;;;4400123;32;73124;-63
2023/09/21 16:28:11;;;;;;;7.55;4.65;;;;;;;;;;4401022;32;66215;-62
2023/09/21 16:30:58;;;;;;;7.82;4.78;;;;;;;;;;4400683;32;66010;-64
2023/09/21 16:33:45;;;;;;;7.53;4.45;;;;;;;;;;4388063;32;59851;-62
2023/09/21 16:36:31;;;;;;;;;;;;;;;;;;4398564;32;71742;-63
2023/09/21 16:39:18;;;;;;;8.32;5.07;;;;;;;;;;4398464;32;70571;-63
2023/09/21 16:42:05;;;;;;;7.47;4.72;;;;;;;;;;4376804;32;68773;-61
2023/09/21 16:47:36;;;;;;;8.13;5.00;;;;;;;;;;3839802;37;43921;-62
2023/09/21 16:50:24;;;;;;;7.93;4.93;;;;;;;;;;4384515;32;59000;-62
2023/09/21 16:53:11;;;;;;;9.38;5.22;;;;;;;;;;4372391;32;70033;-63
2023/09/21 16:56:00;;;;;;;7.15;4.85;;;;;;;;;;4384142;32;68224;-63
2023/09/21 16:58:48;;;;;;;;;;;;;;;;;;4384807;32;67293;-63
2023/09/21 17:01:35;;;;;;;8.80;5.32;;;;;;;;;;4396417;32;72129;-63
2023/09/21 17:04:22;;;;;;;8.05;5.32;;;;;;;;;;4384545;32;65684;-63
2023/09/21 17:07:10;;;;;;;7.68;5.35;;;;;;;;;;4384421;32;66688;-63
2023/09/21 17:09:56;;;;;;;9.40;5.30;;;;;;;;;;4396822;32;59268;-63
2023/09/21 17:12:43;;;;;;;;;;;;;;;;;;4374403;32;71923;-62
2023/09/21 17:15:30;;;;;;;7.87;5.05;;;;;;;;;;4383101;32;63800;-64
2023/09/21 17:18:17;;;;;;;7.93;4.90;;;;;;;;;;4372538;32;68531;-63
2023/09/21 17:21:04;;;;;;;8.13;4.82;;;;;;;;;;4396200;32;58989;-63
2023/09/21 17:23:51;;;;;;;9.98;5.72;;;;;;;;;;4383652;32;70551;-63